Rejestracja

Wszystkie dane podawane są w czasie UTC za wyjątkiem miejsc gdzie jest jednoznacznie podane, że jest inaczej. Dane podawane w serwisie mają charakter informacyjny!!!
Informacje w sprawie dostępu do serwisu pod numerem tel. +48 22 68-28-138, CA MON (828-138)!!!

Aktualna Pogoda
 
Pogoda w Polsce
7°C Szczecin 2°C Suwałki 6°C Warszawa 6°C Poznan
8°C Opole 7°C Kraków 5°C Rzeszów
Więcej miast w Polsce

Pogoda w Europie
10°C Berlin 13°C Paryz 14°C Bruksela 3°C Oslo
9°C Praga 8°C Zagrzeb
Więcej miast w Europie

Metary wojskowe test
METAR EPBC 310800Z 30001KT 0900 FG BKN004 06/06 Q1028=
METAR EPCE 310830Z 00000KT 5000 BR FEW088 BKN108 BKN143 04/04 Q1027 RMK 043 100 7/2=
METAR EPDA 310830Z 17004KT 120V210 6000 BKN074 07/05 Q1027 RMK 065 093 7/7=
METAR EPDE 310830Z 33002KT 1500 BR BKN005 OVC010 05/04 Q1028 RMK 047 094 8/5=
SPECI EPIR 310853Z VRB02KT 0800 FG BKN002 OVC006 05/05 Q1028 RMK 053 099 8/6=
METAR EPKS 310830Z 08004KT 0300 R29/0700D FG VV001 07/06 Q1028 RMK 068 097 ///=
METAR EPLK 310830Z VRB02KT 9999 BKN012 06/03 Q1028 RMK 059 079 7/7=
METAR EPLY 310830Z VRB02KT 5000 BR SCT007 OVC012 06/05 Q1028 RMK 062 091 8/4=
METAR EPMB 310830Z 21006KT 1500 BR SCT002 BKN020 03/03 Q1027 RMK 029 100 6/4=
METAR EPMI 310830Z 13004KT 0500 R12/0800 FG BKN002 OVC005 04/04 Q1027 RMK 039 100 8/6=
METAR EPMM 310830Z 31004KT 6000 SCT008 OVC010 06/02 Q1028 RMK 056 079 8/4=
METAR EPNA 310800Z 17002KT 0100 FG VV/// 03/02 Q1027 RMK 029 096 ///=
METAR EPOK 310830Z 25006KT 9999 BKN105 08/07 Q1026 RMK 084 088 7/7=
METAR EPPR 310830Z 15002KT 8000 BKN100 06/06 Q1027 RMK 064 094 7/7=
METAR EPPW 310830Z 13002KT 5000 BR SCT008 OVC009 06/05 Q1028 RMK 063 091 8/4=
METAR EPSN 310830Z 15004KT 2000 BR OVC003 04/04 Q1027 RMK 037 100 8/8=
METAR EPTM 310830Z VRB02KT 4000 BR BKN007 OVC012 06/04 Q1028 RMK 060 086 8/6=


 
Informacje ogólne
Pogoda
Warszawa
Temperatura: 6.0°C
Wiatr: 0.0 m/s
Ciśnienie: 1028.7 hPa
Zjawiska: Brak
Temp. max: 6.0 °C
Temp. min: 5.3 °C


Dane astronomiczne
Warszawa:
Dzien: 09:41 h
Noc: 14:19 h


Using HW VSP powered by HW group.

Prawa autorskie©2007 SSH SZ RP. Wszelkie prawa zastrzeżone.